Michael S — 9HQZ9 — position and weather

sailwx.info

Track history (hours):
 
Tides and Currents Weather Stations Pressure Air Temp Water Temp Dewpoint Dewpoint Depression Visibility Wind Speed Wind Dir Waves Ship Positions

Michael S

Last reported at 2018-May-22 08:25 UTC. Time now 2018-May-22 08:46 UTC.
Position N 50°55' W 001°26'.

Length 190 m; draft 6.4 m.

Type: Ship. MMSI: 249393000.

Date/timePositionNaut miles runAvg speedWind from/ knotsBaromVisibWave heightAir tempDewpointWater temp
2018-May-22 08:25N 50°55' W 001°26'0 0.0
2018-May-22 07:55N 50°55' W 001°26'0 0.0
2018-May-22 07:25N 50°55' W 001°26'0 0.0
2018-May-22 06:55N 50°55' W 001°26'0 0.0
2018-May-22 06:22N 50°55' W 001°26'0 0.0
2018-May-22 04:52N 50°55' W 001°26'0 0.0
2018-May-22 04:28N 50°55' W 001°26'0 0.0
2018-May-22 03:58N 50°55' W 001°26'0 0.0
2018-May-22 03:28N 50°55' W 001°26'0 0.0
2018-May-22 02:58N 50°55' W 001°26'0 0.0
2018-May-22 02:28N 50°55' W 001°26'0 0.0
2018-May-22 00:28N 50°55' W 001°26'0 0.0
2018-May-21 23:58N 50°55' W 001°26'0 0.0
2018-May-21 23:28N 50°55' W 001°26'0 0.0
2018-May-21 22:58N 50°55' W 001°26'0 0.0
2018-May-21 20:31N 50°55' W 001°26'0 0.1
2018-May-21 20:28N 50°55' W 001°26'0 0.0
2018-May-21 19:49N 50°55' W 001°26'0 0.0
2018-May-21 19:28N 50°55' W 001°26'0 0.0
2018-May-21 18:58N 50°55' W 001°26'0 0.0
2018-May-21 18:28N 50°55' W 001°26'0 0.0
2018-May-21 18:00N 50°55' W 001°26'0 0.5
2018-May-21 17:30N 50°54' W 001°26'3 5.1
2018-May-21 17:00N 50°53' W 001°23'4 7.6
2018-May-21 16:30N 50°50' W 001°19'4 7.4
2018-May-21 16:00N 50°47' W 001°17'714.9
2018-May-21 15:30N 50°45' W 001°06'612.1
2018-May-21 15:00N 50°41' W 000°58'3 6.3
2018-May-21 14:30N 50°39' W 001°01'1 2.5
2018-May-21 14:00N 50°38' W 001°03'0 0.1
2018-May-21 12:42N 50°38' W 001°03'0 0.0
2018-May-21 12:30N 50°38' W 001°03'0 0.0
2018-May-21 11:54N 50°38' W 001°03'0 0.0
2018-May-21 11:15N 50°38' W 001°03'0 0.0
2018-May-21 10:54N 50°38' W 001°03'0 0.0
2018-May-21 10:21N 50°38' W 001°03'0 0.1
2018-May-21 10:00N 50°38' W 001°03'0 0.3
2018-May-21 09:30N 50°38' W 001°03'0 0.1
2018-May-21 09:00N 50°38' W 001°03'0 0.0
2018-May-21 08:30N 50°38' W 001°03'0 0.0
2018-May-21 08:00N 50°38' W 001°03'0 0.0
2018-May-21 07:30N 50°38' W 001°03'0 0.0
2018-May-21 07:00N 50°38' W 001°03'0 0.0
2018-May-21 06:30N 50°38' W 001°03'0 0.0
2018-May-21 06:00N 50°38' W 001°03'0 0.0
2018-May-21 05:30N 50°38' W 001°03'0 0.0
2018-May-21 05:00N 50°38' W 001°03'0 0.0
2018-May-21 04:30N 50°38' W 001°03'0 0.0
2018-May-21 04:00N 50°38' W 001°03'0 0.0
2018-May-21 03:30N 50°38' W 001°03'0 0.0
2018-May-21 03:00N 50°38' W 001°03'0 0.3
2018-May-21 02:30N 50°38' W 001°03'0 0.2
2018-May-21 02:00N 50°38' W 001°03'0 0.0
2018-May-21 01:30N 50°38' W 001°03'0 0.0
2018-May-21 01:00N 50°38' W 001°03'0 0.0
2018-May-21 00:27N 50°38' W 001°03'0 0.0
2018-May-21 00:00N 50°38' W 001°03'0 0.0
2018-May-20 23:24N 50°38' W 001°03'0 0.2
2018-May-20 23:00N 50°38' W 001°03'1 2.8
2018-May-20 22:30N 50°38' W 001°01'4 7.5
2018-May-20 22:00N 50°37' W 000°56'3 5.7
2018-May-20 21:30N 50°35' W 000°51'4 6.0
2018-May-20 20:53N 50°35' W 000°46'4 8.3
2018-May-20 20:27N 50°34' W 000°40'510.9
2018-May-20 20:00N 50°34' W 000°32'4 8.5
2018-May-20 19:30N 50°33' W 000°26'2 4.0
2018-May-20 19:00N 50°33' W 000°23'3 6.8
2018-May-20 18:30N 50°33' W 000°17'3 6.8
2018-May-20 18:00N 50°33' W 000°12'3 6.3
2018-May-20 17:30N 50°32' W 000°07'3 6.6
2018-May-20 17:00N 50°32' W 000°02'4 8.0
2018-May-20 16:30N 50°33' E 000°04'510.6
2018-May-20 16:00N 50°34' E 000°12'510.3
2018-May-20 15:30N 50°35' E 000°20'5 9.9
2018-May-20 15:00N 50°37' E 000°28'5 9.5
2018-May-20 14:30N 50°38' E 000°35'5 9.3
2018-May-20 14:00N 50°40' E 000°41'5 9.1
2018-May-20 13:30N 50°43' E 000°47'5 9.4
2018-May-20 13:00N 50°45' E 000°53'5 8.9
2018-May-20 12:25N 50°48' E 001°00'15 8.7
2018-May-20 10:40N 50°57' E 001°20'210.6
2018-May-20 10:28N 50°58' E 001°22'610.5
2018-May-20 09:56N 51°02' E 001°29'511.1
2018-May-20 09:30N 51°06' E 001°34'612.5
2018-May-20 09:00N 51°10' E 001°41'611.3
2018-May-20 08:30N 51°15' E 001°46'510.5
2018-May-20 08:00N 51°19' E 001°50'5 9.7
2018-May-20 07:30N 51°24' E 001°54'5 9.0
2018-May-20 07:00N 51°27' E 001°59'4 8.7
2018-May-20 06:30N 51°30' E 002°04'4 8.4
2018-May-20 05:59N 51°33' E 002°08'4 8.3
2018-May-20 05:30N 51°37' E 002°13'4 8.1
2018-May-20 04:58N 51°40' E 002°17'10 8.2
2018-May-20 03:48N 51°47' E 002°28'5 8.9
2018-May-20 03:17N 51°50' E 002°33'3 9.3
2018-May-20 03:00N 51°52' E 002°36'5 9.7
2018-May-20 02:30N 51°55' E 002°42'710.1
2018-May-20 01:50N 51°58' E 002°52'21 2.6
2018-May-19 17:47N 51°48' E 003°21'0 0.0
2018-May-19 17:26N 51°48' E 003°21'0 0.0
2018-May-19 16:50N 51°48' E 003°21'0 0.0
2018-May-19 04:49N 51°48' E 003°21'0 0.0
2018-May-19 04:01N 51°48' E 003°21'0 0.2
2018-May-19 03:58N 51°48' E 003°21'0 0.1
2018-May-19 02:31N 51°47' E 003°21'0 0.3
2018-May-19 02:28N 51°47' E 003°21'0 0.2
2018-May-19 01:55N 51°47' E 003°21'0 0.0
2018-May-19 01:25N 51°47' E 003°21'0 0.0
2018-May-18 14:52N 51°48' E 003°21'0 0.0
2018-May-18 09:46N 51°47' E 003°21'0 0.0
2018-May-18 01:54N 51°47' E 003°21'0 0.0
2018-May-18 01:31N 51°47' E 003°21'0 0.2
2018-May-18 01:00N 51°47' E 003°21'0 0.0
2018-May-17 23:57N 51°47' E 003°21'0 0.0
2018-May-17 23:28N 51°47' E 003°21'0 0.0
2018-May-17 22:51N 51°47' E 003°21'0 0.0
2018-May-17 22:24N 51°47' E 003°21'0 0.0
2018-May-17 21:55N 51°47' E 003°21'0 0.0
2018-May-17 20:36N 51°47' E 003°21'0 0.0
2018-May-17 19:03N 51°47' E 003°21'0 0.2
2018-May-17 19:00N 51°47' E 003°21'0 0.0
2018-May-17 18:18N 51°47' E 003°21'0 0.1
2018-May-17 16:36N 51°48' E 003°21'0 0.0
2018-May-16 20:21N 51°47' E 003°21'0 0.0
2018-May-16 17:42N 51°47' E 003°21'0 0.1
2018-May-16 17:15N 51°47' E 003°21'0 0.2
2018-May-16 16:54N 51°47' E 003°21'0 0.2
2018-May-16 16:24N 51°47' E 003°21'0 0.1
2018-May-16 16:00N 51°47' E 003°21'0 0.0
2018-May-16 10:41N 51°47' E 003°21'0 0.0
2018-May-16 10:17N 51°47' E 003°21'0 0.0
2018-May-16 09:41N 51°47' E 003°21'0 0.1
2018-May-16 09:23N 51°47' E 003°21'0 0.0
2018-May-16 08:59N 51°47' E 003°21'0 0.0
2018-May-16 08:29N 51°47' E 003°21'0 0.0
2018-May-16 07:53N 51°47' E 003°21'0 0.1
2018-May-16 07:29N 51°47' E 003°21'0 0.0
2018-May-16 06:59N 51°47' E 003°21'0 0.0
2018-May-16 06:29N 51°47' E 003°21'0 0.0
2018-May-16 05:59N 51°47' E 003°21'0 0.1
2018-May-16 05:26N 51°47' E 003°21'0 0.1
2018-May-16 04:56N 51°47' E 003°21'0 0.0
2018-May-16 04:29N 51°47' E 003°21'0 0.2
2018-May-16 03:59N 51°48' E 003°21'0 0.1
2018-May-16 03:29N 51°48' E 003°21'0 0.7
2018-May-16 03:00N 51°47' E 003°21'3 5.1
2018-May-16 02:28N 51°46' E 003°17'3 4.6
2018-May-16 01:54N 51°44' E 003°16'4 9.1
2018-May-16 01:30N 51°41' E 003°19'611.4
2018-May-16 01:00N 51°36' E 003°24'610.8
2018-May-16 00:26N 51°30' E 003°28'4 9.2
2018-May-16 00:00N 51°27' E 003°32'3 6.1
2018-May-15 23:30N 51°26' E 003°37'4 7.4
2018-May-15 23:00N 51°25' E 003°42'5 9.3
2018-May-15 22:30N 51°21' E 003°47'2 4.2
2018-May-15 22:00N 51°20' E 003°49'0 0.4
2018-May-15 21:30N 51°19' E 003°49'1 2.9
2018-May-15 21:00N 51°18' E 003°50'3 5.5
2018-May-15 20:30N 51°15' E 003°50'3 6.9
2018-May-15 20:00N 51°12' E 003°48'3 7.0
2018-May-15 19:30N 51°09' E 003°47'3 5.8
2018-May-15 19:00N 51°06' E 003°45'0 0.3
2018-May-15 18:25N 51°06' E 003°45'0 0.0
2018-May-15 17:55N 51°06' E 003°45'0 0.0
2018-May-15 17:22N 51°06' E 003°45'0 0.0
2018-May-15 16:58N 51°06' E 003°45'0 0.0
2018-May-15 16:28N 51°06' E 003°45'0 0.0
2018-May-15 15:57N 51°06' E 003°45'0 0.0
2018-May-15 15:27N 51°06' E 003°45'0 0.0
2018-May-15 14:57N 51°06' E 003°45'0 0.0
2018-May-15 14:27N 51°06' E 003°45'0 0.0
2018-May-15 13:57N 51°06' E 003°45'0 0.0
2018-May-15 13:27N 51°06' E 003°45'0 0.0
2018-May-15 12:57N 51°06' E 003°45'0 0.0
2018-May-15 12:27N 51°06' E 003°45'0 0.0
2018-May-15 11:57N 51°06' E 003°45'0 0.0
2018-May-15 11:27N 51°06' E 003°45'0 0.0
2018-May-15 10:57N 51°06' E 003°45'0 0.0
2018-May-15 10:27N 51°06' E 003°45'0 0.0
2018-May-15 09:51N 51°06' E 003°45'0 0.0
2018-May-15 09:27N 51°06' E 003°45'0 0.0
2018-May-15 08:57N 51°06' E 003°45'0 0.0
2018-May-15 08:27N 51°06' E 003°45'0 0.0
2018-May-15 07:57N 51°06' E 003°45'0 0.0
2018-May-15 07:27N 51°06' E 003°45'0 0.0
2018-May-15 06:57N 51°06' E 003°45'0 0.0
2018-May-15 06:27N 51°06' E 003°45'0 0.0
2018-May-15 05:57N 51°06' E 003°45'0 0.0
2018-May-15 05:27N 51°06' E 003°45'0 0.0
2018-May-15 04:57N 51°06' E 003°45'0 0.0
2018-May-15 04:27N 51°06' E 003°45'0 0.0
2018-May-15 03:57N 51°06' E 003°45'0 0.0
2018-May-15 03:27N 51°06' E 003°45'0 0.0
2018-May-15 02:57N 51°06' E 003°45'0 0.0
2018-May-15 02:27N 51°06' E 003°45'0 0.0
2018-May-15 01:57N 51°06' E 003°45'0 0.0
2018-May-15 01:27N 51°06' E 003°45'0 0.0
2018-May-15 00:57N 51°06' E 003°45'0 0.0
2018-May-15 00:27N 51°06' E 003°45'0 0.0
2018-May-14 23:57N 51°06' E 003°45'0 0.0
2018-May-14 23:27N 51°06' E 003°45'0 0.0
2018-May-14 22:57N 51°06' E 003°45'0 0.0
2018-May-14 22:26N 51°06' E 003°45'0 0.0
2018-May-14 21:57N 51°06' E 003°45'0 0.0
2018-May-14 21:26N 51°06' E 003°45'0 0.0
2018-May-14 20:56N 51°06' E 003°45'0 0.0
2018-May-14 20:26N 51°06' E 003°45'0 0.0
2018-May-14 19:56N 51°06' E 003°45'0 0.0
2018-May-14 19:26N 51°06' E 003°45'0 0.0
2018-May-14 18:56N 51°06' E 003°45'0 0.0
2018-May-14 18:26N 51°06' E 003°45'0 0.0
2018-May-14 17:56N 51°06' E 003°45'0 0.0
2018-May-14 17:26N 51°06' E 003°45'0 0.0
2018-May-14 16:56N 51°06' E 003°45'0 0.0
2018-May-14 16:20N 51°06' E 003°45'0 0.0
2018-May-14 15:55N 51°06' E 003°45'0 0.0
2018-May-14 15:13N 51°06' E 003°45'0 0.0
2018-May-14 14:55N 51°06' E 003°45'0 0.0
2018-May-14 14:30N 51°06' E 003°45'0 0.0
2018-May-14 14:00N 51°06' E 003°45'0 0.0
2018-May-14 13:30N 51°06' E 003°45'0 0.0
2018-May-14 13:00N 51°06' E 003°45'0 0.0
2018-May-14 12:30N 51°06' E 003°45'0 0.0
2018-May-14 11:54N 51°06' E 003°45'0 0.0
2018-May-14 11:30N 51°06' E 003°45'0 0.0
2018-May-14 10:54N 51°06' E 003°45'0 0.0
2018-May-14 10:30N 51°06' E 003°45'0 0.0
2018-May-14 10:00N 51°06' E 003°45'0 0.0
2018-May-14 09:30N 51°06' E 003°45'0 0.0
2018-May-14 09:00N 51°06' E 003°45'0 0.0
2018-May-14 08:30N 51°06' E 003°45'0 0.0
2018-May-14 08:00N 51°06' E 003°45'0 0.0
2018-May-14 07:30N 51°06' E 003°45'0 0.0
2018-May-14 07:00N 51°06' E 003°45'0 0.0
2018-May-14 06:30N 51°06' E 003°45'0 0.0
2018-May-14 06:00N 51°06' E 003°45'0 0.0
2018-May-14 05:30N 51°06' E 003°45'0 0.0
2018-May-14 05:00N 51°06' E 003°45'0 0.0
2018-May-14 04:30N 51°06' E 003°45'0 0.0
2018-May-14 04:00N 51°06' E 003°45'0 0.0
2018-May-14 03:30N 51°06' E 003°45'0 0.0
2018-May-14 03:00N 51°06' E 003°45'0 0.0
2018-May-14 02:24N 51°06' E 003°45'0 0.0
2018-May-14 02:00N 51°06' E 003°45'0 0.0
2018-May-14 01:24N 51°06' E 003°45'0 0.0
2018-May-14 01:00N 51°06' E 003°45'0 0.0
2018-May-14 00:30N 51°06' E 003°45'0 0.0
2018-May-14 00:00N 51°06' E 003°45'0 0.0
2018-May-13 23:30N 51°06' E 003°45'0 0.0
2018-May-13 23:00N 51°06' E 003°45'0 0.0
2018-May-13 22:30N 51°06' E 003°45'0 0.0
2018-May-13 22:00N 51°06' E 003°45'0 0.0
2018-May-13 21:30N 51°06' E 003°45'0 0.0
2018-May-13 21:00N 51°06' E 003°45'0 0.0
2018-May-13 20:30N 51°06' E 003°45'0 0.0
2018-May-13 20:00N 51°06' E 003°45'0 0.0
2018-May-13 19:30N 51°06' E 003°45'0 0.0
2018-May-13 19:00N 51°06' E 003°45'0 0.0
2018-May-13 18:30N 51°06' E 003°45'0 0.0
2018-May-13 17:48N 51°06' E 003°45'0 0.0
2018-May-13 17:30N 51°06' E 003°45'0 0.0
2018-May-13 17:01N 51°06' E 003°45'0 0.0
2018-May-13 16:30N 51°06' E 003°45'0 0.0
2018-May-13 16:00N 51°06' E 003°45'0 0.0
2018-May-13 15:30N 51°06' E 003°45'0 0.0
2018-May-13 14:59N 51°06' E 003°45'0 0.0
2018-May-13 14:29N 51°06' E 003°45'0 0.0
2018-May-13 13:59N 51°06' E 003°45'0 0.0
2018-May-13 13:23N 51°06' E 003°45'0 0.0
2018-May-13 12:59N 51°06' E 003°45'0 0.0
2018-May-13 12:29N 51°06' E 003°45'0 0.0
2018-May-13 11:59N 51°06' E 003°45'0 0.0
2018-May-13 11:29N 51°06' E 003°45'0 0.0
2018-May-13 10:59N 51°06' E 003°45'0 0.0
2018-May-13 10:29N 51°06' E 003°45'0 0.0
2018-May-13 09:59N 51°06' E 003°45'0 0.0
2018-May-13 09:30N 51°06' E 003°45'1 1.4
2018-May-13 09:01N 51°07' E 003°44'3 5.4
2018-May-13 08:31N 51°09' E 003°47'3 6.0
2018-May-13 08:00N 51°12' E 003°48'3 6.2
2018-May-13 07:31N 51°15' E 003°49'3 5.7
2018-May-13 07:00N 51°17' E 003°50'2 4.8
2018-May-13 06:30N 51°20' E 003°49'0 0.0
2018-May-13 06:00N 51°20' E 003°49'2 3.1
2018-May-13 05:30N 51°21' E 003°48'3 5.6
2018-May-13 05:00N 51°23' E 003°44'4 8.9
2018-May-13 04:30N 51°26' E 003°40'4 7.1
2018-May-13 04:00N 51°26' E 003°34'3 6.8
2018-May-13 03:30N 51°25' E 003°29'4 7.5
2018-May-13 03:00N 51°24' E 003°23'4 8.5
2018-May-13 02:30N 51°24' E 003°16'5 9.4
2018-May-13 02:00N 51°24' E 003°09'5 9.8
2018-May-13 01:30N 51°25' E 003°01'510.3
2018-May-13 00:59N 51°25' E 002°52'510.3
2018-May-13 00:30N 51°24' E 002°45'510.4
2018-May-13 00:01N 51°22' E 002°37'3 6.2
2018-May-12 23:30N 51°22' E 002°32'3 6.4
2018-May-12 23:01N 51°21' E 002°27'4 8.3
2018-May-12 22:30N 51°19' E 002°21'611.0
2018-May-12 21:58N 51°16' E 002°14'510.8
2018-May-12 21:30N 51°13' E 002°07'510.8
2018-May-12 21:01N 51°11' E 001°59'511.0
2018-May-12 20:31N 51°09' E 001°51'611.7
2018-May-12 20:00N 51°05' E 001°44'5 9.4
2018-May-12 19:30N 51°02' E 001°51'5 9.1
2018-May-12 19:00N 51°02' E 001°58'611.9
2018-May-12 18:30N 51°03' E 002°08'612.5
2018-May-12 18:00N 51°04' E 002°18'2 1.8
2018-May-12 17:04N 51°03' E 002°20'0 0.1
2018-May-12 16:55N 51°03' E 002°20'1 1.3
2018-May-12 16:25N 51°03' E 002°19'1 3.1
2018-May-12 15:58N 51°03' E 002°17'0 0.8
2018-May-12 15:30N 51°03' E 002°17'0 0.6
2018-May-12 14:55N 51°03' E 002°17'0 0.0
2018-May-12 14:25N 51°03' E 002°17'0 0.0
2018-May-12 13:58N 51°03' E 002°17'0 0.0
2018-May-12 13:22N 51°03' E 002°17'0 0.0
2018-May-12 12:55N 51°03' E 002°17'0 0.0
2018-May-12 12:25N 51°03' E 002°17'0 0.0
2018-May-12 11:58N 51°03' E 002°17'0 0.0
2018-May-12 11:22N 51°03' E 002°17'0 0.0
2018-May-12 10:43N 51°03' E 002°17'0 0.0
2018-May-12 10:28N 51°03' E 002°17'0 0.0
2018-May-12 09:58N 51°03' E 002°17'0 0.0
2018-May-12 09:25N 51°03' E 002°17'0 0.0
2018-May-12 08:55N 51°03' E 002°17'  
Track history (hours):
 
Tides and Currents Weather Stations Pressure Air Temp Water Temp Dewpoint Dewpoint Depression Visibility Wind Speed Wind Dir Waves Ship Positions

Michael S

Last reported at 2018-May-22 08:25 UTC. Time now 2018-May-22 08:46 UTC.
Position N 50°55' W 001°26'.

Length 190 m; draft 6.4 m.

Type: Ship. MMSI: 249393000.

Date/timePositionNaut miles runAvg speedWind from/ knotsBaromVisibWave heightAir tempDewpointWater temp
2018-May-22 08:25N 50°55' W 001°26'0 0.0
2018-May-22 07:55N 50°55' W 001°26'0 0.0
2018-May-22 07:25N 50°55' W 001°26'0 0.0
2018-May-22 06:55N 50°55' W 001°26'0 0.0
2018-May-22 06:22N 50°55' W 001°26'0 0.0
2018-May-22 04:52N 50°55' W 001°26'0 0.0
2018-May-22 04:28N 50°55' W 001°26'0 0.0
2018-May-22 03:58N 50°55' W 001°26'0 0.0
2018-May-22 03:28N 50°55' W 001°26'0 0.0
2018-May-22 02:58N 50°55' W 001°26'0 0.0
2018-May-22 02:28N 50°55' W 001°26'0 0.0
2018-May-22 00:28N 50°55' W 001°26'0 0.0
2018-May-21 23:58N 50°55' W 001°26'0 0.0
2018-May-21 23:28N 50°55' W 001°26'0 0.0
2018-May-21 22:58N 50°55' W 001°26'0 0.0
2018-May-21 20:31N 50°55' W 001°26'0 0.1
2018-May-21 20:28N 50°55' W 001°26'0 0.0
2018-May-21 19:49N 50°55' W 001°26'0 0.0
2018-May-21 19:28N 50°55' W 001°26'0 0.0
2018-May-21 18:58N 50°55' W 001°26'0 0.0
2018-May-21 18:28N 50°55' W 001°26'0 0.0
2018-May-21 18:00N 50°55' W 001°26'0 0.5
2018-May-21 17:30N 50°54' W 001°26'3 5.1
2018-May-21 17:00N 50°53' W 001°23'4 7.6
2018-May-21 16:30N 50°50' W 001°19'4 7.4
2018-May-21 16:00N 50°47' W 001°17'714.9
2018-May-21 15:30N 50°45' W 001°06'612.1
2018-May-21 15:00N 50°41' W 000°58'3 6.3
2018-May-21 14:30N 50°39' W 001°01'1 2.5
2018-May-21 14:00N 50°38' W 001°03'0 0.1
2018-May-21 12:42N 50°38' W 001°03'0 0.0
2018-May-21 12:30N 50°38' W 001°03'0 0.0
2018-May-21 11:54N 50°38' W 001°03'0 0.0
2018-May-21 11:15N 50°38' W 001°03'0 0.0
2018-May-21 10:54N 50°38' W 001°03'0 0.0
2018-May-21 10:21N 50°38' W 001°03'0 0.1
2018-May-21 10:00N 50°38' W 001°03'0 0.3
2018-May-21 09:30N 50°38' W 001°03'0 0.1
2018-May-21 09:00N 50°38' W 001°03'0 0.0
2018-May-21 08:30N 50°38' W 001°03'0 0.0
2018-May-21 08:00N 50°38' W 001°03'0 0.0
2018-May-21 07:30N 50°38' W 001°03'0 0.0
2018-May-21 07:00N 50°38' W 001°03'0 0.0
2018-May-21 06:30N 50°38' W 001°03'0 0.0
2018-May-21 06:00N 50°38' W 001°03'0 0.0
2018-May-21 05:30N 50°38' W 001°03'0 0.0
2018-May-21 05:00N 50°38' W 001°03'0 0.0
2018-May-21 04:30N 50°38' W 001°03'0 0.0
2018-May-21 04:00N 50°38' W 001°03'0 0.0
2018-May-21 03:30N 50°38' W 001°03'0 0.0
2018-May-21 03:00N 50°38' W 001°03'0 0.3
2018-May-21 02:30N 50°38' W 001°03'0 0.2
2018-May-21 02:00N 50°38' W 001°03'0 0.0
2018-May-21 01:30N 50°38' W 001°03'0 0.0
2018-May-21 01:00N 50°38' W 001°03'0 0.0
2018-May-21 00:27N 50°38' W 001°03'0 0.0
2018-May-21 00:00N 50°38' W 001°03'0 0.0
2018-May-20 23:24N 50°38' W 001°03'0 0.2
2018-May-20 23:00N 50°38' W 001°03'1 2.8
2018-May-20 22:30N 50°38' W 001°01'4 7.5
2018-May-20 22:00N 50°37' W 000°56'3 5.7
2018-May-20 21:30N 50°35' W 000°51'4 6.0
2018-May-20 20:53N 50°35' W 000°46'4 8.3
2018-May-20 20:27N 50°34' W 000°40'510.9
2018-May-20 20:00N 50°34' W 000°32'4 8.5
2018-May-20 19:30N 50°33' W 000°26'2 4.0
2018-May-20 19:00N 50°33' W 000°23'3 6.8
2018-May-20 18:30N 50°33' W 000°17'3 6.8
2018-May-20 18:00N 50°33' W 000°12'3 6.3
2018-May-20 17:30N 50°32' W 000°07'3 6.6
2018-May-20 17:00N 50°32' W 000°02'4 8.0
2018-May-20 16:30N 50°33' E 000°04'510.6
2018-May-20 16:00N 50°34' E 000°12'510.3
2018-May-20 15:30N 50°35' E 000°20'5 9.9
2018-May-20 15:00N 50°37' E 000°28'5 9.5
2018-May-20 14:30N 50°38' E 000°35'5 9.3
2018-May-20 14:00N 50°40' E 000°41'5 9.1
2018-May-20 13:30N 50°43' E 000°47'5 9.4
2018-May-20 13:00N 50°45' E 000°53'5 8.9
2018-May-20 12:25N 50°48' E 001°00'15 8.7
2018-May-20 10:40N 50°57' E 001°20'210.6
2018-May-20 10:28N 50°58' E 001°22'610.5
2018-May-20 09:56N 51°02' E 001°29'511.1
2018-May-20 09:30N 51°06' E 001°34'612.5
2018-May-20 09:00N 51°10' E 001°41'611.3
2018-May-20 08:30N 51°15' E 001°46'510.5
2018-May-20 08:00N 51°19' E 001°50'5 9.7
2018-May-20 07:30N 51°24' E 001°54'5 9.0
2018-May-20 07:00N 51°27' E 001°59'4 8.7
2018-May-20 06:30N 51°30' E 002°04'4 8.4
2018-May-20 05:59N 51°33' E 002°08'4 8.3
2018-May-20 05:30N 51°37' E 002°13'4 8.1
2018-May-20 04:58N 51°40' E 002°17'10 8.2
2018-May-20 03:48N 51°47' E 002°28'5 8.9
2018-May-20 03:17N 51°50' E 002°33'3 9.3
2018-May-20 03:00N 51°52' E 002°36'5 9.7
2018-May-20 02:30N 51°55' E 002°42'710.1
2018-May-20 01:50N 51°58' E 002°52'21 2.6
2018-May-19 17:47N 51°48' E 003°21'0 0.0
2018-May-19 17:26N 51°48' E 003°21'0 0.0
2018-May-19 16:50N 51°48' E 003°21'0 0.0
2018-May-19 04:49N 51°48' E 003°21'0 0.0
2018-May-19 04:01N 51°48' E 003°21'0 0.2
2018-May-19 03:58N 51°48' E 003°21'0 0.1
2018-May-19 02:31N 51°47' E 003°21'0 0.3
2018-May-19 02:28N 51°47' E 003°21'0 0.2
2018-May-19 01:55N 51°47' E 003°21'0 0.0
2018-May-19 01:25N 51°47' E 003°21'0 0.0
2018-May-18 14:52N 51°48' E 003°21'0 0.0
2018-May-18 09:46N 51°47' E 003°21'0 0.0
2018-May-18 01:54N 51°47' E 003°21'0 0.0
2018-May-18 01:31N 51°47' E 003°21'0 0.2
2018-May-18 01:00N 51°47' E 003°21'0 0.0
2018-May-17 23:57N 51°47' E 003°21'0 0.0
2018-May-17 23:28N 51°47' E 003°21'0 0.0
2018-May-17 22:51N 51°47' E 003°21'0 0.0
2018-May-17 22:24N 51°47' E 003°21'0 0.0
2018-May-17 21:55N 51°47' E 003°21'0 0.0
2018-May-17 20:36N 51°47' E 003°21'0 0.0
2018-May-17 19:03N 51°47' E 003°21'0 0.2
2018-May-17 19:00N 51°47' E 003°21'0 0.0
2018-May-17 18:18N 51°47' E 003°21'0 0.1
2018-May-17 16:36N 51°48' E 003°21'0 0.0
2018-May-16 20:21N 51°47' E 003°21'0 0.0
2018-May-16 17:42N 51°47' E 003°21'0 0.1
2018-May-16 17:15N 51°47' E 003°21'0 0.2
2018-May-16 16:54N 51°47' E 003°21'0 0.2
2018-May-16 16:24N 51°47' E 003°21'0 0.1
2018-May-16 16:00N 51°47' E 003°21'0 0.0
2018-May-16 10:41N 51°47' E 003°21'0 0.0
2018-May-16 10:17N 51°47' E 003°21'0 0.0
2018-May-16 09:41N 51°47' E 003°21'0 0.1
2018-May-16 09:23N 51°47' E 003°21'0 0.0
2018-May-16 08:59N 51°47' E 003°21'0 0.0
2018-May-16 08:29N 51°47' E 003°21'0 0.0
2018-May-16 07:53N 51°47' E 003°21'0 0.1
2018-May-16 07:29N 51°47' E 003°21'0 0.0
2018-May-16 06:59N 51°47' E 003°21'0 0.0
2018-May-16 06:29N 51°47' E 003°21'0 0.0
2018-May-16 05:59N 51°47' E 003°21'0 0.1
2018-May-16 05:26N 51°47' E 003°21'0 0.1
2018-May-16 04:56N 51°47' E 003°21'0 0.0
2018-May-16 04:29N 51°47' E 003°21'0 0.2
2018-May-16 03:59N 51°48' E 003°21'0 0.1
2018-May-16 03:29N 51°48' E 003°21'0 0.7
2018-May-16 03:00N 51°47' E 003°21'3 5.1
2018-May-16 02:28N 51°46' E 003°17'3 4.6
2018-May-16 01:54N 51°44' E 003°16'4 9.1
2018-May-16 01:30N 51°41' E 003°19'611.4
2018-May-16 01:00N 51°36' E 003°24'610.8
2018-May-16 00:26N 51°30' E 003°28'4 9.2
2018-May-16 00:00N 51°27' E 003°32'3 6.1
2018-May-15 23:30N 51°26' E 003°37'4 7.4
2018-May-15 23:00N 51°25' E 003°42'5 9.3
2018-May-15 22:30N 51°21' E 003°47'2 4.2
2018-May-15 22:00N 51°20' E 003°49'0 0.4
2018-May-15 21:30N 51°19' E 003°49'1 2.9
2018-May-15 21:00N 51°18' E 003°50'3 5.5
2018-May-15 20:30N 51°15' E 003°50'3 6.9
2018-May-15 20:00N 51°12' E 003°48'3 7.0
2018-May-15 19:30N 51°09' E 003°47'3 5.8
2018-May-15 19:00N 51°06' E 003°45'0 0.3
2018-May-15 18:25N 51°06' E 003°45'0 0.0
2018-May-15 17:55N 51°06' E 003°45'0 0.0
2018-May-15 17:22N 51°06' E 003°45'0 0.0
2018-May-15 16:58N 51°06' E 003°45'0 0.0
2018-May-15 16:28N 51°06' E 003°45'0 0.0
2018-May-15 15:57N 51°06' E 003°45'0 0.0
2018-May-15 15:27N 51°06' E 003°45'0 0.0
2018-May-15 14:57N 51°06' E 003°45'0 0.0
2018-May-15 14:27N 51°06' E 003°45'0 0.0
2018-May-15 13:57N 51°06' E 003°45'0 0.0
2018-May-15 13:27N 51°06' E 003°45'0 0.0
2018-May-15 12:57N 51°06' E 003°45'0 0.0
2018-May-15 12:27N 51°06' E 003°45'0 0.0
2018-May-15 11:57N 51°06' E 003°45'0 0.0
2018-May-15 11:27N 51°06' E 003°45'0 0.0
2018-May-15 10:57N 51°06' E 003°45'0 0.0
2018-May-15 10:27N 51°06' E 003°45'0 0.0
2018-May-15 09:51N 51°06' E 003°45'0 0.0
2018-May-15 09:27N 51°06' E 003°45'0 0.0
2018-May-15 08:57N 51°06' E 003°45'0 0.0
2018-May-15 08:27N 51°06' E 003°45'0 0.0
2018-May-15 07:57N 51°06' E 003°45'0 0.0
2018-May-15 07:27N 51°06' E 003°45'0 0.0
2018-May-15 06:57N 51°06' E 003°45'0 0.0
2018-May-15 06:27N 51°06' E 003°45'0 0.0
2018-May-15 05:57N 51°06' E 003°45'0 0.0
2018-May-15 05:27N 51°06' E 003°45'0 0.0
2018-May-15 04:57N 51°06' E 003°45'0 0.0
2018-May-15 04:27N 51°06' E 003°45'0 0.0
2018-May-15 03:57N 51°06' E 003°45'0 0.0
2018-May-15 03:27N 51°06' E 003°45'0 0.0
2018-May-15 02:57N 51°06' E 003°45'0 0.0
2018-May-15 02:27N 51°06' E 003°45'0 0.0
2018-May-15 01:57N 51°06' E 003°45'0 0.0
2018-May-15 01:27N 51°06' E 003°45'0 0.0
2018-May-15 00:57N 51°06' E 003°45'0 0.0
2018-May-15 00:27N 51°06' E 003°45'0 0.0
2018-May-14 23:57N 51°06' E 003°45'0 0.0
2018-May-14 23:27N 51°06' E 003°45'0 0.0
2018-May-14 22:57N 51°06' E 003°45'0 0.0
2018-May-14 22:26N 51°06' E 003°45'0 0.0
2018-May-14 21:57N 51°06' E 003°45'0 0.0
2018-May-14 21:26N 51°06' E 003°45'0 0.0
2018-May-14 20:56N 51°06' E 003°45'0 0.0
2018-May-14 20:26N 51°06' E 003°45'0 0.0
2018-May-14 19:56N 51°06' E 003°45'0 0.0
2018-May-14 19:26N 51°06' E 003°45'0 0.0
2018-May-14 18:56N 51°06' E 003°45'0 0.0
2018-May-14 18:26N 51°06' E 003°45'0 0.0
2018-May-14 17:56N 51°06' E 003°45'0 0.0
2018-May-14 17:26N 51°06' E 003°45'0 0.0
2018-May-14 16:56N 51°06' E 003°45'0 0.0
2018-May-14 16:20N 51°06' E 003°45'0 0.0
2018-May-14 15:55N 51°06' E 003°45'0 0.0
2018-May-14 15:13N 51°06' E 003°45'0 0.0
2018-May-14 14:55N 51°06' E 003°45'0 0.0
2018-May-14 14:30N 51°06' E 003°45'0 0.0
2018-May-14 14:00N 51°06' E 003°45'0 0.0
2018-May-14 13:30N 51°06' E 003°45'0 0.0
2018-May-14 13:00N 51°06' E 003°45'0 0.0
2018-May-14 12:30N 51°06' E 003°45'0 0.0
2018-May-14 11:54N 51°06' E 003°45'0 0.0
2018-May-14 11:30N 51°06' E 003°45'0 0.0
2018-May-14 10:54N 51°06' E 003°45'0 0.0
2018-May-14 10:30N 51°06' E 003°45'0 0.0
2018-May-14 10:00N 51°06' E 003°45'0 0.0
2018-May-14 09:30N 51°06' E 003°45'0 0.0
2018-May-14 09:00N 51°06' E 003°45'0 0.0
2018-May-14 08:30N 51°06' E 003°45'0 0.0
2018-May-14 08:00N 51°06' E 003°45'0 0.0
2018-May-14 07:30N 51°06' E 003°45'0 0.0
2018-May-14 07:00N 51°06' E 003°45'0 0.0
2018-May-14 06:30N 51°06' E 003°45'0 0.0
2018-May-14 06:00N 51°06' E 003°45'0 0.0
2018-May-14 05:30N 51°06' E 003°45'0 0.0
2018-May-14 05:00N 51°06' E 003°45'0 0.0
2018-May-14 04:30N 51°06' E 003°45'0 0.0
2018-May-14 04:00N 51°06' E 003°45'0 0.0
2018-May-14 03:30N 51°06' E 003°45'0 0.0
2018-May-14 03:00N 51°06' E 003°45'0 0.0
2018-May-14 02:24N 51°06' E 003°45'0 0.0
2018-May-14 02:00N 51°06' E 003°45'0 0.0
2018-May-14 01:24N 51°06' E 003°45'0 0.0
2018-May-14 01:00N 51°06' E 003°45'0 0.0
2018-May-14 00:30N 51°06' E 003°45'0 0.0
2018-May-14 00:00N 51°06' E 003°45'0 0.0
2018-May-13 23:30N 51°06' E 003°45'0 0.0
2018-May-13 23:00N 51°06' E 003°45'0 0.0
2018-May-13 22:30N 51°06' E 003°45'0 0.0
2018-May-13 22:00N 51°06' E 003°45'0 0.0
2018-May-13 21:30N 51°06' E 003°45'0 0.0
2018-May-13 21:00N 51°06' E 003°45'0 0.0
2018-May-13 20:30N 51°06' E 003°45'0 0.0
2018-May-13 20:00N 51°06' E 003°45'0 0.0
2018-May-13 19:30N 51°06' E 003°45'0 0.0
2018-May-13 19:00N 51°06' E 003°45'0 0.0
2018-May-13 18:30N 51°06' E 003°45'0 0.0
2018-May-13 17:48N 51°06' E 003°45'0 0.0
2018-May-13 17:30N 51°06' E 003°45'0 0.0
2018-May-13 17:01N 51°06' E 003°45'0 0.0
2018-May-13 16:30N 51°06' E 003°45'0 0.0
2018-May-13 16:00N 51°06' E 003°45'0 0.0
2018-May-13 15:30N 51°06' E 003°45'0 0.0
2018-May-13 14:59N 51°06' E 003°45'0 0.0
2018-May-13 14:29N 51°06' E 003°45'0 0.0
2018-May-13 13:59N 51°06' E 003°45'0 0.0
2018-May-13 13:23N 51°06' E 003°45'0 0.0
2018-May-13 12:59N 51°06' E 003°45'0 0.0
2018-May-13 12:29N 51°06' E 003°45'0 0.0
2018-May-13 11:59N 51°06' E 003°45'0 0.0
2018-May-13 11:29N 51°06' E 003°45'0 0.0
2018-May-13 10:59N 51°06' E 003°45'0 0.0
2018-May-13 10:29N 51°06' E 003°45'0 0.0
2018-May-13 09:59N 51°06' E 003°45'0 0.0
2018-May-13 09:30N 51°06' E 003°45'1 1.4
2018-May-13 09:01N 51°07' E 003°44'3 5.4
2018-May-13 08:31N 51°09' E 003°47'3 6.0
2018-May-13 08:00N 51°12' E 003°48'3 6.2
2018-May-13 07:31N 51°15' E 003°49'3 5.7
2018-May-13 07:00N 51°17' E 003°50'2 4.8
2018-May-13 06:30N 51°20' E 003°49'0 0.0
2018-May-13 06:00N 51°20' E 003°49'2 3.1
2018-May-13 05:30N 51°21' E 003°48'3 5.6
2018-May-13 05:00N 51°23' E 003°44'4 8.9
2018-May-13 04:30N 51°26' E 003°40'4 7.1
2018-May-13 04:00N 51°26' E 003°34'3 6.8
2018-May-13 03:30N 51°25' E 003°29'4 7.5
2018-May-13 03:00N 51°24' E 003°23'4 8.5
2018-May-13 02:30N 51°24' E 003°16'5 9.4
2018-May-13 02:00N 51°24' E 003°09'5 9.8
2018-May-13 01:30N 51°25' E 003°01'510.3
2018-May-13 00:59N 51°25' E 002°52'510.3
2018-May-13 00:30N 51°24' E 002°45'510.4
2018-May-13 00:01N 51°22' E 002°37'3 6.2
2018-May-12 23:30N 51°22' E 002°32'3 6.4
2018-May-12 23:01N 51°21' E 002°27'4 8.3
2018-May-12 22:30N 51°19' E 002°21'611.0
2018-May-12 21:58N 51°16' E 002°14'510.8
2018-May-12 21:30N 51°13' E 002°07'510.8
2018-May-12 21:01N 51°11' E 001°59'511.0
2018-May-12 20:31N 51°09' E 001°51'611.7
2018-May-12 20:00N 51°05' E 001°44'5 9.4
2018-May-12 19:30N 51°02' E 001°51'5 9.1
2018-May-12 19:00N 51°02' E 001°58'611.9
2018-May-12 18:30N 51°03' E 002°08'612.5
2018-May-12 18:00N 51°04' E 002°18'2 1.8
2018-May-12 17:04N 51°03' E 002°20'0 0.1
2018-May-12 16:55N 51°03' E 002°20'1 1.3
2018-May-12 16:25N 51°03' E 002°19'1 3.1
2018-May-12 15:58N 51°03' E 002°17'0 0.8
2018-May-12 15:30N 51°03' E 002°17'0 0.6
2018-May-12 14:55N 51°03' E 002°17'0 0.0
2018-May-12 14:25N 51°03' E 002°17'0 0.0
2018-May-12 13:58N 51°03' E 002°17'0 0.0
2018-May-12 13:22N 51°03' E 002°17'0 0.0
2018-May-12 12:55N 51°03' E 002°17'0 0.0
2018-May-12 12:25N 51°03' E 002°17'0 0.0
2018-May-12 11:58N 51°03' E 002°17'0 0.0
2018-May-12 11:22N 51°03' E 002°17'0 0.0
2018-May-12 10:43N 51°03' E 002°17'0 0.0
2018-May-12 10:28N 51°03' E 002°17'0 0.0
2018-May-12 09:58N 51°03' E 002°17'0 0.0
2018-May-12 09:25N 51°03' E 002°17'0 0.0
2018-May-12 08:55N 51°03' E 002°17'  

Dump ship's entire track history